createdAt,value
2018-03-18T00:01:41.795Z,56.80
2018-03-18T00:04:09.662Z,56.42
2018-03-18T00:06:37.467Z,57.25
2018-03-18T00:09:05.257Z,57.70
2018-03-18T00:11:33.301Z,58.98
2018-03-18T00:14:01.068Z,60.51
2018-03-18T00:16:28.820Z,60.93
2018-03-18T00:18:56.585Z,63.35
2018-03-18T00:21:24.253Z,64.74
2018-03-18T00:23:51.952Z,65.70
2018-03-18T00:26:19.929Z,68.00
2018-03-18T00:28:47.850Z,69.84
2018-03-18T00:31:15.485Z,70.70
2018-03-18T00:33:43.181Z,71.01
2018-03-18T00:36:10.898Z,72.59
2018-03-18T00:38:38.654Z,71.83
2018-03-18T00:41:06.637Z,73.05
2018-03-18T00:43:34.330Z,71.93
2018-03-18T00:46:02.097Z,71.68
2018-03-18T00:48:29.861Z,72.25
2018-03-18T00:50:57.628Z,73.19
2018-03-18T00:53:25.391Z,72.32
2018-03-18T00:55:53.065Z,71.65
2018-03-18T00:58:20.773Z,72.29
2018-03-18T01:00:48.626Z,72.02
2018-03-18T01:03:16.346Z,72.25
2018-03-18T01:05:44.314Z,72.07
2018-03-18T01:08:11.977Z,72.12
2018-03-18T01:10:39.843Z,73.40
2018-03-18T01:13:07.468Z,72.96
2018-03-18T01:15:35.372Z,73.26
2018-03-18T01:18:03.341Z,71.86
2018-03-18T01:20:31.313Z,73.57
2018-03-18T01:22:59.185Z,74.79
2018-03-18T01:25:26.944Z,74.07
2018-03-18T01:27:54.631Z,74.35
2018-03-18T01:30:22.372Z,73.68
2018-03-18T01:32:50.398Z,73.83
2018-03-18T01:35:18.200Z,74.58
2018-03-18T01:37:46.175Z,74.44
2018-03-18T01:40:13.884Z,73.43
2018-03-18T01:42:41.698Z,73.52
2018-03-18T01:45:09.410Z,72.91
2018-03-18T01:47:37.307Z,72.58
2018-03-18T01:50:05.098Z,73.19
2018-03-18T01:52:32.760Z,72.41
2018-03-18T01:55:00.589Z,72.29
2018-03-18T01:57:28.284Z,72.93
2018-03-18T01:59:55.934Z,72.35
2018-03-18T02:02:23.608Z,71.67
2018-03-18T02:04:51.578Z,72.57
2018-03-18T02:07:19.442Z,72.10
2018-03-18T02:09:47.425Z,72.57
2018-03-18T02:12:15.112Z,72.43
2018-03-18T02:14:42.956Z,71.30
2018-03-18T02:17:10.706Z,72.23
2018-03-18T02:19:38.468Z,72.45
2018-03-18T02:22:06.298Z,70.78
2018-03-18T02:24:33.933Z,71.62
2018-03-18T02:27:01.863Z,72.13
2018-03-18T02:29:29.633Z,72.37
2018-03-18T02:31:57.610Z,72.07
2018-03-18T02:34:25.606Z,71.64
2018-03-18T02:36:53.360Z,71.31
2018-03-18T02:39:21.198Z,71.89
2018-03-18T02:41:48.968Z,70.63
2018-03-18T02:44:16.829Z,71.44
2018-03-18T02:46:44.479Z,70.59
2018-03-18T02:49:12.228Z,70.04
2018-03-18T02:51:40.118Z,71.01
2018-03-18T02:54:07.789Z,71.11
2018-03-18T02:56:35.489Z,71.88
2018-03-18T02:59:03.422Z,71.51
2018-03-18T03:01:31.177Z,70.39
2018-03-18T03:03:58.941Z,71.27
2018-03-18T03:06:26.805Z,70.05
2018-03-18T03:08:54.621Z,71.06
2018-03-18T03:11:22.330Z,71.28
2018-03-18T03:13:50.220Z,71.25
2018-03-18T03:16:17.916Z,71.32
2018-03-18T03:18:45.729Z,72.36
2018-03-18T03:21:13.389Z,72.53
2018-03-18T03:23:41.038Z,73.44
2018-03-18T03:26:08.919Z,74.46
2018-03-18T03:28:36.869Z,74.04
2018-03-18T03:31:04.621Z,74.47
2018-03-18T03:33:32.418Z,73.34
2018-03-18T03:36:00.284Z,72.27
2018-03-18T03:38:28.050Z,72.59
2018-03-18T03:40:55.920Z,72.63
2018-03-18T03:43:23.681Z,71.75
2018-03-18T03:45:51.513Z,70.79
2018-03-18T03:48:19.209Z,69.74
2018-03-18T03:50:46.969Z,69.78
2018-03-18T03:53:14.939Z,69.79
2018-03-18T03:55:42.769Z,69.94
2018-03-18T03:58:10.569Z,70.15
2018-03-18T04:00:38.349Z,70.98
2018-03-18T04:03:06.184Z,70.91
2018-03-18T04:05:33.909Z,70.22
2018-03-18T04:08:01.730Z,70.53
2018-03-18T04:10:29.390Z,70.73
2018-03-18T04:12:57.077Z,71.14
2018-03-18T04:15:24.978Z,70.67
2018-03-18T04:17:52.639Z,70.98
2018-03-18T04:20:20.342Z,71.37
2018-03-18T04:22:48.105Z,70.96
2018-03-18T04:25:15.835Z,70.48
2018-03-18T04:27:43.748Z,69.77
2018-03-18T04:30:11.378Z,70.16
2018-03-18T04:32:39.178Z,70.04
2018-03-18T04:35:06.799Z,69.58
2018-03-18T04:37:34.492Z,68.64
2018-03-18T04:40:02.255Z,68.05
2018-03-18T04:42:29.940Z,67.71
2018-03-18T04:44:57.782Z,68.07
2018-03-18T04:47:25.648Z,66.95
2018-03-18T04:49:53.515Z,66.85
2018-03-18T04:52:21.281Z,65.75
2018-03-18T04:54:49.152Z,67.15
2018-03-18T04:57:16.975Z,67.01
2018-03-18T04:59:44.879Z,67.58
2018-03-18T05:02:12.847Z,68.84
2018-03-18T05:04:40.821Z,68.87
2018-03-18T05:07:08.449Z,69.69
2018-03-18T05:09:36.216Z,69.71
2018-03-18T05:12:04.110Z,70.07
2018-03-18T05:14:31.989Z,69.89
2018-03-18T05:16:59.741Z,70.66
2018-03-18T05:19:27.500Z,70.51
2018-03-18T05:21:55.160Z,70.85
2018-03-18T05:24:22.931Z,71.03
2018-03-18T05:26:50.678Z,71.75
2018-03-18T05:29:18.456Z,71.99
2018-03-18T05:31:46.120Z,72.51
2018-03-18T05:34:13.784Z,72.11
2018-03-18T05:36:41.441Z,72.19
2018-03-18T05:39:09.413Z,72.35
2018-03-18T05:41:37.280Z,71.07
2018-03-18T05:44:05.037Z,70.99
2018-03-18T05:46:32.673Z,71.56
2018-03-18T05:49:00.469Z,71.02
2018-03-18T05:51:28.237Z,70.58
2018-03-18T05:53:56.001Z,70.34
2018-03-18T05:56:23.791Z,70.23
2018-03-18T05:58:51.526Z,70.21
2018-03-18T06:01:19.398Z,70.44
2018-03-18T06:03:47.059Z,71.01
2018-03-18T06:06:15.129Z,70.07
2018-03-18T06:08:42.991Z,69.90
2018-03-18T06:11:10.761Z,69.62
2018-03-18T06:13:38.416Z,70.49
2018-03-18T06:16:06.153Z,70.07
2018-03-18T06:18:34.048Z,70.56
2018-03-18T06:21:01.916Z,70.75
2018-03-18T06:23:29.577Z,70.85
2018-03-18T06:25:57.408Z,70.61
2018-03-18T06:28:25.029Z,71.00
2018-03-18T06:30:52.972Z,70.47
2018-03-18T06:33:20.739Z,70.02
2018-03-18T06:35:48.416Z,69.84
2018-03-18T06:38:16.121Z,70.07
2018-03-18T06:40:43.759Z,69.75
2018-03-18T06:43:11.584Z,69.63
2018-03-18T06:45:39.358Z,69.07
2018-03-18T06:48:07.207Z,68.60
2018-03-18T06:50:34.847Z,68.56
2018-03-18T06:53:02.643Z,68.27
2018-03-18T06:55:30.307Z,68.69
2018-03-18T06:57:58.072Z,67.85
2018-03-18T07:00:25.731Z,69.15
2018-03-18T07:02:53.598Z,67.88
2018-03-18T07:05:21.470Z,68.75
2018-03-18T07:07:49.432Z,68.61
2018-03-18T07:10:17.298Z,67.84
2018-03-18T07:12:45.161Z,68.97
2018-03-18T07:15:12.836Z,67.69
2018-03-18T07:17:40.695Z,68.29
2018-03-18T07:20:08.457Z,68.77
2018-03-18T07:22:36.120Z,69.18
2018-03-18T07:25:03.940Z,68.88
2018-03-18T07:27:31.754Z,69.30
2018-03-18T07:29:59.484Z,68.67
2018-03-18T07:32:27.165Z,68.69
2018-03-18T07:34:55.221Z,68.65
2018-03-18T07:37:22.968Z,67.68
2018-03-18T07:39:50.772Z,67.39
2018-03-18T07:42:18.744Z,67.64
2018-03-18T07:44:46.715Z,67.05
2018-03-18T07:47:14.634Z,67.84
2018-03-18T07:49:42.346Z,67.80
2018-03-18T07:52:10.016Z,66.84
2018-03-18T07:54:37.975Z,67.83
2018-03-18T07:57:05.785Z,68.46
2018-03-18T07:59:33.494Z,67.76
2018-03-18T08:02:01.377Z,67.26
2018-03-18T08:04:29.339Z,66.17
2018-03-18T08:06:56.990Z,66.95
2018-03-18T08:09:24.766Z,66.68
2018-03-18T08:11:52.499Z,66.99
2018-03-18T08:14:20.613Z,65.50
2018-03-18T08:16:48.423Z,64.92
2018-03-18T08:19:16.334Z,63.87
2018-03-18T08:21:44.204Z,64.95
2018-03-18T08:24:12.067Z,64.26
2018-03-18T08:26:39.935Z,64.24
2018-03-18T08:30:29.623Z,61.87
2018-03-18T08:32:57.382Z,60.44
2018-03-18T08:35:25.257Z,62.05
2018-03-18T08:37:53.009Z,60.85
2018-03-18T08:40:20.777Z,59.29
2018-03-18T08:42:48.518Z,60.90
2018-03-18T08:45:16.518Z,59.53
2018-03-18T08:50:12.552Z,61.85
2018-03-18T08:52:40.294Z,61.44
2018-03-18T08:55:08.088Z,61.67
2018-03-18T08:57:35.947Z,63.47
2018-03-18T09:00:03.828Z,63.11
2018-03-18T09:02:32.093Z,62.95
2018-03-18T09:05:00.236Z,63.74
2018-03-18T09:07:28.145Z,64.78
2018-03-18T09:09:56.016Z,63.97
2018-03-18T09:12:23.972Z,64.76
2018-03-18T09:14:51.920Z,64.24
2018-03-18T09:17:19.648Z,65.81
2018-03-18T09:19:47.368Z,65.05
2018-03-18T09:22:15.228Z,66.50
2018-03-18T09:24:43.207Z,66.40
2018-03-18T09:27:11.067Z,64.73
2018-03-18T09:29:38.894Z,64.72
2018-03-18T09:32:06.899Z,64.90
2018-03-18T09:34:34.868Z,64.04
2018-03-18T09:37:02.735Z,62.33
2018-03-18T09:39:30.644Z,63.97
2018-03-18T09:41:58.571Z,61.78
2018-03-18T09:44:26.209Z,61.14
2018-03-18T09:46:54.037Z,60.11
2018-03-18T09:49:22.060Z,59.91
2018-03-18T09:51:49.730Z,58.48
2018-03-18T09:54:17.529Z,58.80
2018-03-18T09:56:45.322Z,57.89
2018-03-18T09:59:12.995Z,58.99
2018-03-18T10:01:40.751Z,58.06
2018-03-18T10:04:08.659Z,56.43
2018-03-18T10:06:36.421Z,56.38
2018-03-18T10:09:04.269Z,57.60
2018-03-18T10:11:32.183Z,57.94
2018-03-18T10:14:00.026Z,58.02
2018-03-18T10:16:28.197Z,56.49
2018-03-18T10:18:55.934Z,56.23
2018-03-18T10:21:23.608Z,56.84
2018-03-18T10:23:51.602Z,56.51
2018-03-18T10:26:19.348Z,56.16
2018-03-18T10:28:47.245Z,55.44
2018-03-18T10:31:15.131Z,55.61
2018-03-18T10:33:43.322Z,56.12
2018-03-18T10:36:11.020Z,54.92
2018-03-18T10:38:39.112Z,53.38
2018-03-18T10:41:06.961Z,54.16
2018-03-18T10:43:34.855Z,57.59
2018-03-18T10:46:02.752Z,56.98
2018-03-18T10:48:31.054Z,55.08
2018-03-18T10:50:58.940Z,55.38
2018-03-18T10:53:26.938Z,56.04
2018-03-18T10:55:54.633Z,55.80
2018-03-18T10:58:22.750Z,56.55
2018-03-18T11:00:51.434Z,57.01
2018-03-18T11:03:19.243Z,58.38
2018-03-18T11:05:46.952Z,56.34
2018-03-18T11:08:14.623Z,55.93
2018-03-18T11:10:42.380Z,54.25
2018-03-18T11:13:10.397Z,54.47
2018-03-18T11:15:38.274Z,55.05
2018-03-18T11:18:06.138Z,55.38
2018-03-18T11:20:33.900Z,56.03
2018-03-18T11:23:01.620Z,55.79
2018-03-18T11:25:29.302Z,54.44
2018-03-18T11:27:57.346Z,55.40
2018-03-18T11:30:25.422Z,55.07
2018-03-18T11:32:53.389Z,55.05
2018-03-18T11:35:21.255Z,55.39
2018-03-18T11:37:49.124Z,56.29
2018-03-18T11:40:17.196Z,55.50
2018-03-18T11:42:45.073Z,55.49
2018-03-18T11:45:12.929Z,55.29
2018-03-18T11:47:41.025Z,53.49
2018-03-18T11:50:08.861Z,54.56
2018-03-18T11:52:36.663Z,54.49
2018-03-18T11:55:04.282Z,52.95
2018-03-18T11:57:31.926Z,52.87
2018-03-18T11:59:59.678Z,53.15
2018-03-18T12:02:27.334Z,52.55
2018-03-18T12:04:55.089Z,53.44
2018-03-18T12:07:22.714Z,53.73
2018-03-18T12:09:50.421Z,53.72
2018-03-18T12:12:18.137Z,53.68
2018-03-18T12:14:46.097Z,55.27
2018-03-18T12:17:13.731Z,54.69
2018-03-18T12:19:41.430Z,55.18
2018-03-18T12:22:09.293Z,55.22
2018-03-18T12:24:37.372Z,53.70
2018-03-18T12:27:05.041Z,53.21
2018-03-18T12:29:32.984Z,51.93
2018-03-18T12:32:00.665Z,53.13
2018-03-18T12:34:29.433Z,53.49
2018-03-18T12:36:57.303Z,52.97
2018-03-18T12:39:25.171Z,52.79
2018-03-18T12:41:52.851Z,54.01
2018-03-18T12:44:20.801Z,53.84
2018-03-18T12:46:48.873Z,55.66
2018-03-18T12:49:16.796Z,53.16
2018-03-18T12:51:44.513Z,53.69
2018-03-18T12:54:12.343Z,53.91
2018-03-18T12:56:40.338Z,52.25
2018-03-18T12:59:08.205Z,52.50
2018-03-18T13:01:35.866Z,52.96
2018-03-18T13:04:03.643Z,52.52
2018-03-18T13:06:31.702Z,51.82
2018-03-18T13:08:59.387Z,54.02
2018-03-18T13:11:27.225Z,53.07
2018-03-18T13:13:55.005Z,52.19
2018-03-18T13:16:22.757Z,52.54
2018-03-18T13:18:50.585Z,52.38
2018-03-18T13:21:19.742Z,52.51
2018-03-18T13:23:47.594Z,52.93
2018-03-18T13:26:15.607Z,52.68
2018-03-18T13:28:43.424Z,51.79
2018-03-18T13:31:11.105Z,53.55
2018-03-18T13:33:38.831Z,51.79
2018-03-18T13:36:06.820Z,51.36
2018-03-18T13:38:34.444Z,52.57
2018-03-18T13:41:02.208Z,52.29
2018-03-18T13:43:30.013Z,52.60
2018-03-18T13:45:58.193Z,52.06
2018-03-18T13:48:26.205Z,52.54
2018-03-18T13:50:53.982Z,52.37
2018-03-18T13:53:21.674Z,53.31
2018-03-18T13:55:49.449Z,51.33
2018-03-18T13:58:17.315Z,50.48
2018-03-18T14:00:45.376Z,51.39
2018-03-18T14:03:13.452Z,51.29
2018-03-18T14:05:41.261Z,51.93
2018-03-18T14:08:08.983Z,52.53
2018-03-18T14:10:36.650Z,52.73
2018-03-18T14:13:04.411Z,51.45
2018-03-18T14:15:32.282Z,51.12
2018-03-18T14:18:00.245Z,51.38
2018-03-18T14:20:27.902Z,51.75
2018-03-18T14:22:55.790Z,52.32
2018-03-18T14:25:23.513Z,50.55
2018-03-18T14:27:51.509Z,50.82
2018-03-18T14:30:19.374Z,51.31
2018-03-18T14:32:47.238Z,49.73
2018-03-18T14:35:15.131Z,50.17
2018-03-18T14:37:42.975Z,49.73
2018-03-18T14:40:10.802Z,50.53
2018-03-18T14:42:38.531Z,50.22
2018-03-18T14:45:06.370Z,51.07
2018-03-18T14:47:34.176Z,51.71
2018-03-18T14:50:02.101Z,52.46
2018-03-18T14:52:31.050Z,53.96
2018-03-18T14:54:59.011Z,55.14
2018-03-18T14:57:26.730Z,52.75
2018-03-18T14:59:54.566Z,51.82
2018-03-18T15:02:22.252Z,52.77
2018-03-18T15:04:50.053Z,54.23
2018-03-18T15:07:18.297Z,51.85
2018-03-18T15:09:46.288Z,50.96
2018-03-18T15:12:14.186Z,52.49
2018-03-18T15:14:41.994Z,52.37
2018-03-18T15:17:09.866Z,52.62
2018-03-18T15:19:37.640Z,51.72
2018-03-18T15:22:05.326Z,52.67
2018-03-18T15:24:33.154Z,52.47
2018-03-18T15:27:01.341Z,52.89
2018-03-18T15:29:30.227Z,51.15
2018-03-18T15:31:58.520Z,53.68
2018-03-18T15:34:26.262Z,53.95
2018-03-18T15:36:54.545Z,54.38
2018-03-18T15:39:22.616Z,55.06
2018-03-18T15:41:50.479Z,52.00
2018-03-18T15:44:18.336Z,51.81
2018-03-18T15:48:00.306Z,52.14
2018-03-18T15:50:28.112Z,52.89
2018-03-18T15:52:55.975Z,53.53
2018-03-18T15:55:23.842Z,53.78
2018-03-18T15:57:51.710Z,55.29
2018-03-18T16:00:19.677Z,54.62
2018-03-18T16:02:47.545Z,54.50
2018-03-18T16:05:15.312Z,54.38
2018-03-18T16:07:43.072Z,55.29
2018-03-18T16:10:10.784Z,55.43
2018-03-18T16:12:38.920Z,55.78
2018-03-18T16:15:06.571Z,55.28
2018-03-18T16:17:34.231Z,54.35
2018-03-18T16:20:01.995Z,54.90
2018-03-18T16:22:29.660Z,54.45
2018-03-18T16:24:57.423Z,53.94
2018-03-18T16:27:25.295Z,54.33
2018-03-18T16:30:05.038Z,55.48
2018-03-18T16:32:32.701Z,56.81
2018-03-18T16:35:00.664Z,55.47
2018-03-18T16:37:28.428Z,56.19
2018-03-18T16:39:56.193Z,57.12
2018-03-18T16:42:23.955Z,55.75
2018-03-18T16:44:51.679Z,56.34
2018-03-18T16:47:19.438Z,56.82
2018-03-18T16:49:47.250Z,54.81
2018-03-18T16:52:14.977Z,55.64
2018-03-18T16:54:42.741Z,55.83
2018-03-18T16:57:10.644Z,55.76
2018-03-18T16:59:38.511Z,53.84
2018-03-18T17:02:06.250Z,55.65
2018-03-18T17:04:33.940Z,56.26
2018-03-18T17:07:01.643Z,56.32
2018-03-18T17:09:29.372Z,56.92
2018-03-18T17:11:57.132Z,57.14
2018-03-18T17:14:24.994Z,57.05
2018-03-18T17:16:52.759Z,56.61
2018-03-18T17:19:20.625Z,54.88
2018-03-18T17:21:48.285Z,55.73
2018-03-18T17:24:16.155Z,55.00
2018-03-18T17:26:43.873Z,55.02
2018-03-18T17:29:11.632Z,56.08
2018-03-18T17:31:39.402Z,56.66
2018-03-18T17:34:07.175Z,55.13
2018-03-18T17:36:34.931Z,55.67
2018-03-18T17:39:02.636Z,55.97
2018-03-18T17:41:30.401Z,56.13
2018-03-18T17:43:58.169Z,54.93
2018-03-18T17:46:37.811Z,53.84
2018-03-18T17:49:17.450Z,55.66
2018-03-18T17:55:04.494Z,55.68
2018-03-18T17:57:32.359Z,56.34
2018-03-18T18:00:00.120Z,56.36
2018-03-18T18:02:27.880Z,56.04
2018-03-18T18:04:55.644Z,55.25
2018-03-18T18:07:23.310Z,55.53
2018-03-18T18:09:51.055Z,54.20
2018-03-18T18:12:18.940Z,55.51
2018-03-18T18:14:46.708Z,57.19
2018-03-18T18:17:14.538Z,56.42
2018-03-18T18:19:42.302Z,55.10
2018-03-18T18:22:10.059Z,55.65
2018-03-18T18:24:37.761Z,55.52
2018-03-18T18:27:05.625Z,55.24
2018-03-18T18:29:33.389Z,54.86
2018-03-18T18:32:01.256Z,55.62
2018-03-18T18:34:29.021Z,55.53
2018-03-18T18:36:56.887Z,56.15
2018-03-18T18:39:24.650Z,54.65
2018-03-18T18:41:52.465Z,56.06
2018-03-18T18:44:20.275Z,55.54
2018-03-18T18:46:48.158Z,56.30
2018-03-18T18:49:15.811Z,56.57
2018-03-18T18:51:43.677Z,55.07
2018-03-18T18:54:11.442Z,56.59
2018-03-18T18:56:39.208Z,55.50
2018-03-18T18:59:07.029Z,56.40
2018-03-18T19:01:34.837Z,56.90
2018-03-18T19:04:02.751Z,56.64
2018-03-18T19:06:30.520Z,55.12
2018-03-18T19:08:58.251Z,55.20
2018-03-18T19:11:25.996Z,55.66
2018-03-18T19:13:53.862Z,56.69
2018-03-18T19:16:21.516Z,56.03
2018-03-18T19:18:49.289Z,57.44
2018-03-18T19:21:17.011Z,56.88
2018-03-18T19:23:44.816Z,56.05
2018-03-18T19:26:12.518Z,57.41
2018-03-18T19:28:40.364Z,57.77
2018-03-18T19:31:08.112Z,57.56
2018-03-18T19:33:35.919Z,56.87
2018-03-18T19:36:03.638Z,56.70
2018-03-18T19:38:31.396Z,57.43
2018-03-18T19:40:59.114Z,57.16
2018-03-18T19:43:26.931Z,57.71
2018-03-18T19:45:54.645Z,57.39
2018-03-18T19:48:22.386Z,57.75
2018-03-18T19:50:50.076Z,57.24
2018-03-18T19:53:17.885Z,57.39
2018-03-18T19:55:45.751Z,57.94
2018-03-18T19:58:13.475Z,57.11
2018-03-18T20:00:41.222Z,59.24
2018-03-18T20:03:09.043Z,57.62
2018-03-18T20:05:36.877Z,57.15
2018-03-18T20:08:04.569Z,57.37
2018-03-18T20:10:32.233Z,58.56
2018-03-18T20:12:59.897Z,57.86
2018-03-18T20:15:27.559Z,56.00
2018-03-18T20:17:55.423Z,58.48
2018-03-18T20:20:23.294Z,56.74
2018-03-18T20:22:50.952Z,57.96
2018-03-18T20:25:18.617Z,56.79
2018-03-18T20:27:46.278Z,57.21
2018-03-18T20:30:14.144Z,57.86
2018-03-18T20:32:41.972Z,56.83
2018-03-18T20:35:09.876Z,56.71
2018-03-18T20:37:37.537Z,56.27
2018-03-18T20:40:05.490Z,59.36
2018-03-18T20:42:33.234Z,57.89
2018-03-18T20:45:01.039Z,58.51
2018-03-18T20:47:28.902Z,57.28
2018-03-18T20:49:56.668Z,57.04
2018-03-18T20:52:24.421Z,57.60
2018-03-18T20:54:52.132Z,57.53
2018-03-18T20:57:19.960Z,57.41
2018-03-18T20:59:47.673Z,57.05
2018-03-18T21:02:15.487Z,57.73
2018-03-18T21:04:43.251Z,58.47
2018-03-18T21:07:10.931Z,58.55
2018-03-18T21:09:38.632Z,59.76
2018-03-18T21:12:06.339Z,57.23
2018-03-18T21:14:34.104Z,58.27
2018-03-18T21:17:01.929Z,57.08
2018-03-18T21:19:29.631Z,57.91
2018-03-18T21:21:57.606Z,58.27
2018-03-18T21:24:25.379Z,56.94
2018-03-18T21:26:53.230Z,57.73
2018-03-18T21:29:20.958Z,56.33
2018-03-18T21:31:48.724Z,56.14
2018-03-18T21:34:16.527Z,57.18
2018-03-18T21:36:44.393Z,56.68
2018-03-18T21:39:12.056Z,57.78
2018-03-18T21:41:39.821Z,56.02
2018-03-18T21:44:07.636Z,56.27
2018-03-18T21:46:35.345Z,55.77
2018-03-18T21:49:03.219Z,56.75
2018-03-18T21:51:30.976Z,56.30
2018-03-18T21:53:58.793Z,56.40
2018-03-18T21:56:26.612Z,55.87
2018-03-18T21:58:54.473Z,55.51
2018-03-18T22:01:22.564Z,55.63
2018-03-18T22:03:50.379Z,56.42
2018-03-18T22:06:18.072Z,55.68
2018-03-18T22:08:45.940Z,55.95
2018-03-18T22:11:13.704Z,55.84
2018-03-18T22:13:41.574Z,56.45
2018-03-18T22:16:09.334Z,56.22
2018-03-18T22:18:36.996Z,55.14
2018-03-18T22:21:04.760Z,56.93
2018-03-18T22:23:32.613Z,57.23
2018-03-18T22:26:00.397Z,56.14
2018-03-18T22:28:28.368Z,55.60
2018-03-18T22:30:56.024Z,56.08
2018-03-18T22:33:23.686Z,55.81
2018-03-18T22:35:51.455Z,56.66
2018-03-18T22:38:19.316Z,56.75
2018-03-18T22:40:47.069Z,56.77
2018-03-18T22:43:14.736Z,56.50
2018-03-18T22:45:42.502Z,55.32
2018-03-18T22:48:10.269Z,56.10
2018-03-18T22:50:38.032Z,57.39
2018-03-18T22:53:05.747Z,56.97
2018-03-18T22:55:33.572Z,57.39
2018-03-18T22:58:01.276Z,56.61
2018-03-18T23:00:29.090Z,57.23
2018-03-18T23:02:56.853Z,56.01
2018-03-18T23:05:24.619Z,55.88
2018-03-18T23:07:52.343Z,56.53
2018-03-18T23:10:20.146Z,56.59
2018-03-18T23:12:47.915Z,56.95
2018-03-18T23:15:15.780Z,58.78
2018-03-18T23:17:43.544Z,57.05
2018-03-18T23:20:11.304Z,56.15
2018-03-18T23:22:39.016Z,57.79
2018-03-18T23:25:06.834Z,57.50
2018-03-18T23:27:34.610Z,58.44
2018-03-18T23:30:02.361Z,57.83
2018-03-18T23:32:30.229Z,56.71
2018-03-18T23:34:57.894Z,57.07
2018-03-18T23:37:25.764Z,57.83
2018-03-18T23:39:53.470Z,56.76
2018-03-18T23:42:21.345Z,57.72
2018-03-18T23:44:49.047Z,58.01
2018-03-18T23:47:16.818Z,57.73
2018-03-18T23:49:44.577Z,57.76
2018-03-18T23:52:12.300Z,58.86
2018-03-18T23:54:40.106Z,58.27
2018-03-18T23:57:07.973Z,59.16
2018-03-18T23:59:35.702Z,58.68
